Terminal Aerodrome Forecast
Issued by NWS

Home | Current Version | Previous Version | Text Only | Print | Product List | Glossary On
Versions: 1 2 3 4 5 6 7 8 9 10 11 12 13 14 15 16 17 18 19 20 21 22 23 24
000
FTUS45 KGJT 182320
TAFMTJ
TAF
KMTJ 182320Z 1900/1924 36007KT P6SM SCT110
     FM190300 15006KT P6SM FEW200
     FM191500 VRB03KT P6SM FEW200
     FM191900 34007KT P6SM FEW110=

USA.gov is the U.S. government's official web portal to all federal, state and local government web resources and services.